Time;durP1;ratioP1;P1;durP2;ratioP2;P2;SDS_P1;SDS_P2;PMS_P1;PMS_P2;Temp;Humidity;BMP_temperature;BMP_pressure;BME280_temperature;BME280_humidity;BME280_pressure;Samples;Min_cycle;Max_cycle;Signal;HPM_P1;HPM_P2
2023/12/11 01:52:41;;;;;;;1.20;0.70;;;;;;;6.54;55.82;101395.84;5382112;23;20449;-91
2023/12/11 01:55:08;;;;;;;1.13;0.82;;;;;;;6.53;55.65;101388.88;4866005;29;20490;-91
2023/12/11 01:57:37;;;;;;;0.35;0.35;;;;;;;6.34;56.25;101374.59;4868573;29;20441;-92
2023/12/11 04:00:21;;;;;;;3.80;1.65;;;;;;;6.48;55.68;101350.59;5668095;23;20428;31
2023/12/11 04:13:08;;;;;;;0.60;0.60;;;;;;;6.34;55.81;101353.53;4883149;29;20415;-92
2023/12/11 04:15:33;;;;;;;0.40;0.40;;;;;;;6.30;55.41;101346.84;4879958;29;20408;-90
2023/12/11 04:17:59;;;;;;;0.28;0.28;;;;;;;6.25;55.63;101349.03;4861506;29;20477;-90
2023/12/11 04:20:28;;;;;;;0.70;0.70;;;;;;;6.13;55.79;101349.06;4883759;29;20420;-94
2023/12/11 04:22:57;;;;;;;0.40;0.30;;;;;;;6.03;55.66;101342.03;4885772;29;20441;-95
2023/12/11 04:25:54;;;;;;;0.30;0.30;;;;;;;5.99;55.57;101351.16;4881709;29;20392;-94
2023/12/11 04:28:21;;;;;;;0.50;0.40;;;;;;;5.95;56.20;101355.78;4901968;29;20403;-96
2023/12/11 04:38:37;;;;;;;0.28;0.28;;;;;;;5.87;56.00;101342.41;4838265;29;20411;-94
2023/12/11 04:41:03;;;;;;;0.80;0.50;;;;;;;5.91;55.50;101339.41;4862395;29;20404;-95
2023/12/11 04:43:56;;;;;;;0.20;0.20;;;;;;;5.90;55.62;101339.53;4892692;29;20399;-94
2023/12/11 04:46:35;;;;;;;;;;;;;;;;;;;;;
2023/12/11 04:49:01;;;;;;;0.52;0.40;;;;;;;5.78;55.84;101351.03;4894278;29;20421;-95
2023/12/11 04:51:27;;;;;;;0.80;0.80;;;;;;;5.72;55.77;101358.47;4877734;29;20425;-94
2023/12/11 04:53:53;;;;;;;0.50;0.50;;;;;;;5.71;55.73;101348.91;4864917;29;20415;-95
2023/12/11 04:56:29;;;;;;;0.77;0.77;;;;;;;5.67;55.35;101354.53;4879879;29;20424;-94
2023/12/11 04:58:55;;;;;;;0.70;0.70;;;;;;;5.61;55.56;101366.38;4868446;29;20928;-95
2023/12/11 05:01:21;;;;;;;0.40;0.40;;;;;;;5.54;55.49;101360.75;4870445;29;20431;-95
2023/12/11 05:04:13;;;;;;;1.67;1.57;;;;;;;5.51;55.92;101355.75;4879061;29;20399;-96
2023/12/11 05:06:46;;;;;;;3.17;2.05;;;;;;;5.51;55.56;101362.78;4839724;29;20413;-95
2023/12/11 05:09:12;;;;;;;1.30;1.20;;;;;;;5.40;56.20;101363.63;4887960;29;20415;-93
2023/12/11 05:11:41;;;;;;;0.90;0.90;;;;;;;5.17;56.47;101373.34;4883957;29;20982;-93
2023/12/11 05:14:15;;;;;;;1.10;1.00;;;;;;;5.06;56.82;101363.66;4878521;29;20429;-94
2023/12/11 05:17:06;;;;;;;1.02;0.93;;;;;;;5.04;56.85;101369.97;4879358;29;20512;-94
2023/12/11 05:19:35;;;;;;;2.20;2.10;;;;;;;4.95;56.67;101361.84;4854531;29;20404;-94
2023/12/11 05:22:04;;;;;;;0.90;0.90;;;;;;;4.99;56.88;101372.97;4841011;29;20418;-91
2023/12/11 05:24:33;;;;;;;0.85;0.85;;;;;;;4.92;56.76;101369.97;4854395;29;20473;-91
2023/12/11 05:27:11;;;;;;;;;;;;;;;;;;;;;
2023/12/11 05:36:41;;;;;;;0.90;0.40;;;;;;;4.87;56.86;101372.09;4813492;29;20466;-95
2023/12/11 06:00:59;;;;;;;2.35;1.10;;;;;;;4.75;58.02;101384.38;5399753;23;20385;31
2023/12/11 06:03:31;;;;;;;0.50;0.50;;;;;;;4.88;57.07;101392.16;4881904;29;20454;-93
2023/12/11 06:06:20;;;;;;;0.80;0.80;;;;;;;4.78;56.92;101391.19;4875851;29;20419;-94
2023/12/11 06:16:27;;;;;;;1.70;1.60;;;;;;;4.58;57.89;101393.50;4849517;29;20495;-92
2023/12/11 06:18:58;;;;;;;1.92;1.83;;;;;;;4.60;58.06;101404.72;4850124;29;20469;-93
2023/12/11 06:21:25;;;;;;;1.23;1.00;;;;;;;4.56;58.07;101403.28;4838111;29;20502;-91
2023/12/11 06:23:54;;;;;;;1.40;1.33;;;;;;;4.63;57.65;101402.81;4864578;29;20411;-90
2023/12/11 06:26:42;;;;;;;1.88;1.35;;;;;;;4.60;57.84;101398.66;4881205;29;20400;-89
2023/12/11 06:29:08;;;;;;;2.03;1.83;;;;;;;4.53;57.73;101397.44;4873618;29;20428;-89
2023/12/11 06:31:38;;;;;;;1.30;1.30;;;;;;;4.54;57.74;101410.44;4899379;29;20404;-91
2023/12/11 06:34:08;;;;;;;4.95;2.60;;;;;;;4.43;58.35;101406.91;4895513;29;20487;-89
2023/12/11 06:36:34;;;;;;;2.53;2.33;;;;;;;4.45;58.30;101416.38;4864643;29;20461;-91
2023/12/11 06:39:00;;;;;;;3.40;1.58;;;;;;;4.45;58.10;101415.53;4867242;29;20400;-91
2023/12/11 06:41:25;;;;;;;6.57;1.40;;;;;;;4.52;58.32;101411.50;4867394;29;20490;-90
2023/12/11 06:43:57;;;;;;;0.90;0.90;;;;;;;4.62;58.34;101420.38;4884451;29;20507;-89
2023/12/11 06:46:29;;;;;;;0.32;0.32;;;;;;;4.68;57.77;101414.69;4883489;29;20438;-89
2023/12/11 06:48:59;;;;;;;0.70;0.70;;;;;;;4.82;57.67;101423.31;4882326;29;20413;-89
2023/12/11 06:51:25;;;;;;;0.80;0.75;;;;;;;4.85;57.52;101425.72;4864508;29;20425;-90
2023/12/11 06:53:58;;;;;;;0.60;0.47;;;;;;;4.92;57.18;101429.56;4936490;23;20446;-90
2023/12/11 06:56:24;;;;;;;2.40;1.13;;;;;;;4.93;57.45;101425.97;4847064;29;20435;-88
2023/12/11 06:58:56;;;;;;;0.30;0.30;;;;;;;5.04;57.42;101441.78;4827439;29;20417;-88
2023/12/11 07:01:39;;;;;;;;;;;;;;;;;;;;;
2023/12/11 07:04:12;;;;;;;2.40;1.20;;;;;;;5.08;57.08;101435.31;4847594;29;20471;-91
2023/12/11 08:12:15;;;;;;;1.70;1.60;;;;;;;6.20;58.09;101382.81;5665677;23;20437;-91
2023/12/11 08:14:43;;;;;;;0.50;0.50;;;;;;;6.27;58.20;101376.06;4884248;29;20434;-88
2023/12/11 08:17:10;;;;;;;1.30;1.20;;;;;;;6.35;57.87;101378.06;4879838;29;20423;-90
2023/12/11 08:19:47;;;;;;;0.45;0.45;;;;;;;6.40;58.01;101389.06;4864294;29;20407;-90
2023/12/11 08:22:13;;;;;;;1.00;0.90;;;;;;;6.42;58.01;101381.88;4863113;29;20457;-90
2023/12/11 08:24:57;;;;;;;0.30;0.30;;;;;;;6.54;57.81;101380.88;4863758;29;20427;-89
2023/12/11 08:27:23;;;;;;;0.50;0.50;;;;;;;6.54;58.12;101380.03;4864089;29;20462;-92
2023/12/11 08:32:59;;;;;;;0.85;0.85;;;;;;;6.54;57.75;101388.75;4900742;29;20442;-93
2023/12/11 08:35:28;;;;;;;1.95;1.75;;;;;;;6.48;58.22;101389.25;4891966;29;20394;-92
2023/12/11 08:37:56;;;;;;;0.63;0.60;;;;;;;6.60;58.57;101403.22;4889301;29;20431;-89
2023/12/11 08:42:58;;;;;;;3.80;2.07;;;;;;;6.96;57.72;101388.75;5029278;23;20531;-91
2023/12/11 08:45:26;;;;;;;0.50;0.50;;;;;;;7.05;57.85;101393.25;4853659;29;20897;-93
2023/12/11 08:48:20;;;;;;;0.40;0.30;;;;;;;7.13;57.41;101394.41;4868899;29;20412;-89
2023/12/11 08:50:52;;;;;;;0.32;0.32;;;;;;;7.25;57.67;101394.19;4859061;29;20423;-89
2023/12/11 08:53:20;;;;;;;0.50;0.50;;;;;;;7.31;57.26;101370.91;4884228;29;20403;-93
2023/12/11 08:55:53;;;;;;;0.40;0.40;;;;;;;7.48;57.42;101378.19;4879538;29;20447;-90
2023/12/11 08:58:20;;;;;;;0.30;0.30;;;;;;;7.57;56.93;101372.09;4891821;29;20456;-92
2023/12/11 09:00:51;;;;;;;0.60;0.60;;;;;;;7.58;57.00;101367.66;4897265;29;20517;-91
2023/12/11 09:03:17;;;;;;;1.00;1.00;;;;;;;7.53;56.92;101367.25;4899410;29;20521;-92
2023/12/11 09:05:42;;;;;;;0.60;0.60;;;;;;;7.55;57.15;101362.66;4901605;29;20546;-91
2023/12/11 09:08:17;;;;;;;0.60;0.60;;;;;;;7.65;57.07;101368.78;4888019;29;20688;-96
2023/12/11 09:10:44;;;;;;;0.20;0.20;;;;;;;7.74;57.15;101357.44;4901186;29;20477;-92
2023/12/11 09:13:12;;;;;;;0.23;0.23;;;;;;;7.83;56.96;101347.84;4881677;29;20425;-90
2023/12/11 09:15:38;;;;;;;0.73;0.73;;;;;;;8.00;56.71;101344.56;4882167;29;20424;-92
2023/12/11 09:18:08;;;;;;;0.23;0.23;;;;;;;8.06;56.64;101335.25;4882496;29;20950;-92
2023/12/11 09:20:46;;;;;;;0.60;0.60;;;;;;;8.18;56.39;101336.78;4883979;29;20394;-90
2023/12/11 09:23:18;;;;;;;0.50;0.40;;;;;;;8.29;56.40;101329.69;4882749;29;20406;-94
2023/12/11 09:25:49;;;;;;;0.70;0.70;;;;;;;8.38;56.52;101326.22;4880904;29;20852;-92
2023/12/11 09:28:17;;;;;;;0.45;0.45;;;;;;;8.40;56.25;101322.44;4884699;29;20490;-92
2023/12/11 09:30:43;;;;;;;0.50;0.50;;;;;;;8.46;56.05;101313.16;4888225;29;20886;-90
2023/12/11 09:33:12;;;;;;;1.80;0.50;;;;;;;8.49;56.18;101309.41;4883891;29;20808;-90
2023/12/11 09:36:18;;;;;;;0.50;0.50;;;;;;;8.49;56.10;101296.19;4891317;29;20401;-93
2023/12/11 09:38:45;;;;;;;1.88;1.15;;;;;;;8.60;56.21;101304.78;4796903;29;20454;-91
2023/12/11 09:41:11;;;;;;;0.40;0.40;;;;;;;8.67;56.19;101302.41;4883248;29;20413;-93
2023/12/11 09:43:38;;;;;;;1.23;0.93;;;;;;;8.79;56.30;101295.16;4881392;29;20488;-90
2023/12/11 09:46:07;;;;;;;1.00;0.90;;;;;;;8.95;55.89;101297.19;4887129;29;20410;-91
2023/12/11 09:48:34;;;;;;;2.60;1.90;;;;;;;8.93;55.81;101283.25;4899326;29;20457;-89
2023/12/11 09:51:07;;;;;;;1.17;1.13;;;;;;;8.91;56.21;101262.28;4881388;29;20445;-88
2023/12/11 09:53:37;;;;;;;0.90;0.90;;;;;;;8.97;56.35;101255.56;4883808;29;20410;-89
2023/12/11 17:41:08;;;;;;;12.73;5.53;;;;;;;8.07;55.67;101064.97;5664783;23;20438;-94
2023/12/11 17:43:52;;;;;;;2.88;2.58;;;;;;;8.07;56.12;101077.31;4884144;29;20427;-94
2023/12/11 18:00:25;;;;;;;;;;;;;;;;;;;;;
2023/12/11 18:16:15;;;;;;;2.65;2.28;;;;;;;7.01;58.09;101082.63;4883844;29;20964;-92
2023/12/11 18:18:45;;;;;;;1.85;1.67;;;;;;;7.00;58.24;101087.03;4872875;29;20427;-92
2023/12/11 18:21:13;;;;;;;0.80;0.73;;;;;;;6.99;58.30;101081.94;4831151;29;20420;-95
2023/12/11 18:34:02;;;;;;;2.55;2.35;;;;;;;6.98;58.21;101056.53;4883099;29;20454;-91
2023/12/11 18:36:30;;;;;;;1.90;1.75;;;;;;;6.92;58.64;101054.47;4868986;29;20498;-90
2023/12/11 18:38:59;;;;;;;1.00;1.00;;;;;;;6.76;58.56;101018.94;4861744;29;20408;-92
2023/12/11 18:41:30;;;;;;;1.15;1.08;;;;;;;6.63;59.02;101011.28;4873411;29;20405;-91
2023/12/11 18:44:21;;;;;;;3.22;1.70;;;;;;;6.48;59.33;100999.47;4863539;29;20421;-94
2023/12/11 18:46:46;;;;;;;2.42;2.22;;;;;;;6.39;59.65;100995.03;4863089;29;20461;-94
2023/12/11 18:49:18;;;;;;;1.40;1.15;;;;;;;6.09;60.23;101002.84;4860238;29;20431;-90
2023/12/11 18:51:49;;;;;;;1.73;1.63;;;;;;;6.04;60.52;100991.91;4856841;29;20434;-91
2023/12/11 18:54:35;;;;;;;1.00;0.90;;;;;;;5.97;60.94;101000.47;4860519;29;20419;-93
2023/12/11 18:57:31;;;;;;;4.03;3.10;;;;;;;5.91;60.28;100994.72;4856485;29;20785;-96
2023/12/11 19:00:04;;;;;;;1.40;1.30;;;;;;;5.84;60.72;100998.03;4872682;29;20414;-91
2023/12/11 19:02:33;;;;;;;1.60;1.40;;;;;;;6.04;60.03;101012.13;4866660;29;20574;-94
2023/12/11 19:07:43;;;;;;;5.53;1.90;;;;;;;5.98;60.06;100996.84;5844895;23;20425;-90
2023/12/11 19:10:10;;;;;;;0.77;0.77;;;;;;;6.11;59.65;101005.34;4880399;29;20800;-88
2023/12/11 19:12:40;;;;;;;0.90;0.60;;;;;;;6.05;59.66;100995.34;4879934;29;20395;-89
